Douglas, Washington
Current Conditions -  °F | °C
As of 6:53 AM on Thursday 23 Oct 2014 (Local Time) from KEPH Reporting Station
Overcast Overcast  
Wind Chill: 48°   Ceiling: 8500
Heat Index: 48°   Visibility: 10mi
Dew Point: 45°   Wind: 3mph
Humidity: 89%   Direction: 100°E
Pressure: 29.73"   Gusts: NA
Location:  47.6257°N, 119.744°W
Report Text: KEPH 231353Z AUTO 10003KT 10SM OVC085 09/07 A2973 RMK AO2 SLP071 T00890072
Loading
Personal Weather Stations






























Interactive Weather Map
Tropical Storm Tracking
New forecast layout! Learn more

10-Day Weather Forecast

Advertisements
Track Severe Weather on mobile